createdAt,value
2022-10-07T00:02:08.543Z,0.30
2022-10-07T00:04:37.034Z,0.20
2022-10-07T00:07:03.608Z,0.20
2022-10-07T00:09:30.755Z,0.30
2022-10-07T00:11:57.330Z,0.20
2022-10-07T00:14:23.888Z,0.20
2022-10-07T00:16:50.576Z,0.50
2022-10-07T00:19:17.229Z,0.30
2022-10-07T00:21:43.873Z,0.20
2022-10-07T00:24:11.176Z,0.20
2022-10-07T00:26:38.495Z,0.28
2022-10-07T00:29:06.937Z,0.20
2022-10-07T00:31:36.272Z,0.30
2022-10-07T00:34:04.600Z,0.20
2022-10-07T00:36:37.457Z,0.20
2022-10-07T00:39:09.014Z,0.20
2022-10-07T00:41:39.698Z,0.20
2022-10-07T00:44:27.793Z,0.20
2022-10-07T00:46:55.364Z,0.30
2022-10-07T00:49:22.445Z,0.28
2022-10-07T00:51:51.910Z,0.30
2022-10-07T00:54:20.497Z,0.28
2022-10-07T00:56:50.603Z,0.20
2022-10-07T00:59:18.659Z,0.20
2022-10-07T01:01:46.316Z,0.20
2022-10-07T01:04:15.141Z,0.20
2022-10-07T01:06:42.986Z,0.25
2022-10-07T01:09:11.115Z,0.30
2022-10-07T01:11:37.919Z,0.30
2022-10-07T01:14:30.977Z,0.20
2022-10-07T01:17:06.372Z,0.25
2022-10-07T01:19:42.838Z,0.30
2022-10-07T01:22:41.500Z,0.30
2022-10-07T01:25:23.842Z,0.20
2022-10-07T01:27:57.611Z,0.35
2022-10-07T01:30:24.495Z,0.30
2022-10-07T01:33:01.502Z,0.30
2022-10-07T01:35:33.587Z,0.20
2022-10-07T01:38:05.558Z,0.30
2022-10-07T01:40:37.654Z,0.20
2022-10-07T01:43:05.410Z,0.20
2022-10-07T01:45:35.385Z,0.30
2022-10-07T01:48:02.249Z,0.30
2022-10-07T01:50:30.681Z,0.30
2022-10-07T01:53:16.862Z,0.20
2022-10-07T01:56:27.544Z,0.22
2022-10-07T01:59:16.420Z,0.30
2022-10-07T02:01:48.869Z,0.28
2022-10-07T02:04:39.635Z,0.30
2022-10-07T02:07:21.949Z,0.20
2022-10-07T02:09:58.116Z,0.30
2022-10-07T02:13:12.379Z,0.28
2022-10-07T02:15:47.719Z,0.20
2022-10-07T02:18:18.364Z,0.20
2022-10-07T02:20:49.420Z,0.30
2022-10-07T02:23:19.081Z,0.20
2022-10-07T02:25:48.852Z,0.20
2022-10-07T02:28:19.988Z,0.20
2022-10-07T02:30:53.325Z,0.30
2022-10-07T02:33:22.402Z,0.20
2022-10-07T02:35:54.876Z,0.30
2022-10-07T02:38:22.255Z,0.20
2022-10-07T02:41:07.373Z,0.20
2022-10-07T02:43:48.652Z,0.30
2022-10-07T02:46:30.455Z,0.40
2022-10-07T02:49:02.074Z,0.30
2022-10-07T02:51:36.767Z,0.20
2022-10-07T02:54:04.934Z,0.20
2022-10-07T02:56:34.436Z,0.30
2022-10-07T02:59:04.056Z,0.20
2022-10-07T03:01:34.943Z,0.30
2022-10-07T03:04:01.629Z,0.20
2022-10-07T03:06:29.703Z,0.20
2022-10-07T03:08:58.009Z,0.20
2022-10-07T03:11:24.606Z,0.20
2022-10-07T03:13:51.163Z,0.20
2022-10-07T03:16:17.923Z,0.20
2022-10-07T03:18:46.320Z,0.28
2022-10-07T03:21:12.966Z,0.20
2022-10-07T03:23:39.643Z,0.25
2022-10-07T03:26:07.226Z,0.40
2022-10-07T03:28:38.943Z,0.30
2022-10-07T03:31:08.265Z,0.20
2022-10-07T03:33:37.284Z,0.30
2022-10-07T03:36:05.810Z,0.25
2022-10-07T03:38:33.086Z,0.20
2022-10-07T03:41:01.920Z,0.20
2022-10-07T03:43:28.931Z,0.20
2022-10-07T03:45:56.952Z,0.30
2022-10-07T03:48:23.521Z,0.30
2022-10-07T03:50:56.505Z,0.20
2022-10-07T03:53:24.481Z,0.30
2022-10-07T03:55:51.053Z,0.30
2022-10-07T03:58:17.637Z,0.20
2022-10-07T04:00:44.188Z,0.30
2022-10-07T04:03:10.991Z,0.20
2022-10-07T04:05:37.742Z,0.22
2022-10-07T04:08:05.234Z,0.20
2022-10-07T04:10:32.342Z,0.30
2022-10-07T04:12:59.078Z,0.20
2022-10-07T04:15:25.963Z,0.20
2022-10-07T04:17:59.056Z,0.30
2022-10-07T04:20:26.371Z,0.30
2022-10-07T04:22:53.003Z,0.30
2022-10-07T04:25:34.896Z,0.20
2022-10-07T04:28:04.287Z,0.20
2022-10-07T04:30:33.765Z,0.38
2022-10-07T04:33:02.935Z,0.20
2022-10-07T04:35:30.098Z,0.20
2022-10-07T04:37:57.226Z,0.20
2022-10-07T04:40:24.733Z,0.20
2022-10-07T04:43:10.188Z,0.20
2022-10-07T04:45:37.789Z,0.20
2022-10-07T04:48:08.241Z,0.20
2022-10-07T04:50:38.793Z,0.30
2022-10-07T04:53:09.563Z,0.20
2022-10-07T04:55:50.130Z,0.20
2022-10-07T04:58:17.462Z,0.20
2022-10-07T05:00:49.713Z,0.30
2022-10-07T05:03:18.094Z,0.20
2022-10-07T05:05:46.825Z,0.20
2022-10-07T05:08:18.189Z,0.20
2022-10-07T05:10:44.986Z,0.20
2022-10-07T05:13:14.001Z,0.22
2022-10-07T05:15:52.328Z,0.20
2022-10-07T05:18:19.928Z,0.20
2022-10-07T05:20:47.696Z,0.20
2022-10-07T05:23:22.316Z,0.20
2022-10-07T05:26:01.048Z,0.20
2022-10-07T05:28:28.071Z,0.20
2022-10-07T05:31:11.912Z,0.20
2022-10-07T05:33:39.270Z,0.25
2022-10-07T05:36:07.931Z,0.30
2022-10-07T05:38:35.358Z,0.20
2022-10-07T05:41:04.217Z,0.30
2022-10-07T05:43:33.622Z,0.30
2022-10-07T05:46:11.418Z,0.20
2022-10-07T05:48:39.597Z,0.30
2022-10-07T05:51:08.373Z,0.30
2022-10-07T05:53:35.000Z,0.32
2022-10-07T05:56:09.122Z,0.30
2022-10-07T05:58:36.383Z,0.20
2022-10-07T06:01:07.740Z,0.30
2022-10-07T06:03:37.168Z,0.30
2022-10-07T06:06:04.253Z,0.30
2022-10-07T06:08:31.078Z,0.20
2022-10-07T06:11:20.656Z,0.30
2022-10-07T06:13:54.465Z,0.20
2022-10-07T06:16:22.373Z,0.28
2022-10-07T06:18:50.641Z,0.20
2022-10-07T06:21:17.314Z,0.20
2022-10-07T06:23:43.933Z,0.20
2022-10-07T06:26:11.770Z,0.20
2022-10-07T06:28:40.934Z,0.30
2022-10-07T06:31:10.930Z,0.30
2022-10-07T06:33:38.548Z,0.20
2022-10-07T06:36:07.168Z,0.25
2022-10-07T06:38:33.869Z,0.28
2022-10-07T06:41:01.758Z,0.30
2022-10-07T06:43:34.517Z,0.20
2022-10-07T06:46:03.727Z,0.30
2022-10-07T06:48:32.832Z,0.30
2022-10-07T06:51:00.522Z,0.30
2022-10-07T06:53:27.125Z,0.30
2022-10-07T06:55:59.646Z,0.20
2022-10-07T06:58:27.074Z,0.30
2022-10-07T07:00:54.404Z,0.30
2022-10-07T07:03:21.301Z,0.20
2022-10-07T07:05:49.743Z,0.30
2022-10-07T07:08:31.997Z,0.30
2022-10-07T07:11:27.344Z,0.30
2022-10-07T07:13:54.791Z,0.30
2022-10-07T07:16:22.259Z,0.30
2022-10-07T07:18:53.747Z,0.20
2022-10-07T07:21:21.653Z,0.30
2022-10-07T07:23:48.365Z,0.40
2022-10-07T07:26:15.130Z,0.30
2022-10-07T07:28:41.802Z,0.30
2022-10-07T07:31:10.458Z,0.30
2022-10-07T07:33:40.170Z,0.30
2022-10-07T07:36:18.204Z,0.28
2022-10-07T07:38:55.906Z,0.30
2022-10-07T07:41:25.991Z,0.25
2022-10-07T07:43:54.834Z,0.30
2022-10-07T07:46:25.720Z,0.30
2022-10-07T07:48:53.945Z,0.40
2022-10-07T07:51:20.652Z,0.38
2022-10-07T07:53:49.962Z,0.30
2022-10-07T07:56:17.420Z,0.40
2022-10-07T07:58:44.021Z,0.32
2022-10-07T08:01:16.220Z,0.30
2022-10-07T08:03:46.265Z,0.40
2022-10-07T08:06:14.337Z,0.40
2022-10-07T08:08:43.136Z,0.30
2022-10-07T08:11:11.614Z,0.40
2022-10-07T08:13:41.863Z,0.43
2022-10-07T08:16:14.303Z,0.38
2022-10-07T08:18:42.608Z,0.40
2022-10-07T08:21:10.583Z,0.30
2022-10-07T08:23:38.202Z,0.40
2022-10-07T08:26:05.501Z,0.40
2022-10-07T08:28:32.719Z,0.30
2022-10-07T08:31:04.370Z,0.30
2022-10-07T08:33:36.306Z,0.40
2022-10-07T08:36:04.742Z,0.30
2022-10-07T08:38:35.171Z,0.40
2022-10-07T08:41:31.932Z,0.40
2022-10-07T08:44:08.099Z,0.40
2022-10-07T08:46:37.725Z,0.40
2022-10-07T08:49:15.479Z,0.30
2022-10-07T08:51:54.040Z,0.40
2022-10-07T08:54:27.654Z,0.30
2022-10-07T08:56:57.685Z,0.30
2022-10-07T08:59:33.054Z,0.40
2022-10-07T09:02:18.395Z,0.30
2022-10-07T09:05:20.328Z,0.40
2022-10-07T09:07:52.130Z,0.40
2022-10-07T09:10:34.468Z,0.30
2022-10-07T09:13:06.134Z,0.50
2022-10-07T09:15:56.820Z,0.50
2022-10-07T09:18:53.411Z,0.30
2022-10-07T09:21:23.523Z,0.30
2022-10-07T09:24:01.588Z,0.60
2022-10-07T09:26:28.292Z,0.50
2022-10-07T09:28:54.941Z,0.60
2022-10-07T09:31:23.855Z,0.50
2022-10-07T09:33:52.954Z,0.60
2022-10-07T09:36:20.191Z,0.60
2022-10-07T09:38:49.631Z,0.70
2022-10-07T09:41:38.546Z,0.70
2022-10-07T09:44:15.981Z,0.60
2022-10-07T09:46:52.043Z,0.77
2022-10-07T09:49:30.661Z,0.50
2022-10-07T09:52:23.401Z,0.90
2022-10-07T09:54:52.594Z,1.00
2022-10-07T09:57:36.174Z,0.80
2022-10-07T10:00:18.280Z,0.90
2022-10-07T10:03:05.214Z,0.90
2022-10-07T10:05:35.384Z,0.73
2022-10-07T10:08:14.236Z,1.20
2022-10-07T10:10:59.980Z,1.10
2022-10-07T10:13:30.916Z,1.40
2022-10-07T10:15:58.032Z,1.30
2022-10-07T10:18:40.275Z,1.13
2022-10-07T10:21:21.948Z,1.10
2022-10-07T10:24:06.097Z,1.15
2022-10-07T10:27:04.849Z,1.20
2022-10-07T10:29:37.420Z,1.00
2022-10-07T10:32:27.544Z,0.80
2022-10-07T10:35:08.362Z,0.82
2022-10-07T10:37:40.772Z,0.93
2022-10-07T10:40:33.178Z,0.93
2022-10-07T10:43:21.867Z,0.60
2022-10-07T10:46:20.867Z,0.40
2022-10-07T10:49:39.754Z,0.47
2022-10-07T10:52:45.476Z,0.40
2022-10-07T10:55:35.126Z,0.50
2022-10-07T10:58:10.539Z,0.50
2022-10-07T11:00:59.468Z,0.50
2022-10-07T11:03:50.211Z,0.40
2022-10-07T11:06:19.315Z,0.40
2022-10-07T11:08:47.758Z,0.40
2022-10-07T11:11:19.469Z,0.40
2022-10-07T11:14:12.228Z,0.40
2022-10-07T11:16:44.813Z,0.40
2022-10-07T11:19:23.838Z,0.40
2022-10-07T11:21:56.481Z,0.50
2022-10-07T11:24:45.433Z,0.50
2022-10-07T11:27:23.030Z,0.60
2022-10-07T11:30:15.568Z,0.55
2022-10-07T11:32:49.577Z,0.40
2022-10-07T11:35:43.995Z,0.32
2022-10-07T11:38:10.525Z,0.33
2022-10-07T11:40:48.584Z,0.40
2022-10-07T11:43:38.146Z,0.32
2022-10-07T11:46:15.027Z,0.40
2022-10-07T11:49:13.827Z,0.50
2022-10-07T11:51:51.413Z,0.50
2022-10-07T11:54:21.712Z,0.40
2022-10-07T11:56:52.319Z,0.40
2022-10-07T11:59:46.260Z,0.30
2022-10-07T12:02:28.527Z,0.43
2022-10-07T12:04:57.461Z,0.40
2022-10-07T12:07:36.374Z,0.50
2022-10-07T12:10:05.735Z,0.50
2022-10-07T12:12:59.995Z,0.75
2022-10-07T12:15:45.603Z,0.60
2022-10-07T12:18:12.313Z,0.70
2022-10-07T12:20:46.462Z,0.65
2022-10-07T12:23:22.246Z,0.57
2022-10-07T12:26:03.744Z,0.73
2022-10-07T12:28:40.216Z,0.90
2022-10-07T12:31:32.467Z,0.67
2022-10-07T12:34:10.419Z,0.60
2022-10-07T12:36:42.883Z,0.60
2022-10-07T12:39:12.041Z,0.60
2022-10-07T12:41:43.851Z,0.75
2022-10-07T12:44:20.365Z,0.80
2022-10-07T12:46:52.173Z,0.77
2022-10-07T12:49:59.057Z,0.70
2022-10-07T12:52:27.228Z,0.60
2022-10-07T12:55:09.567Z,0.50
2022-10-07T12:57:39.880Z,0.93
2022-10-07T13:00:22.463Z,0.60
2022-10-07T13:03:40.363Z,0.50
2022-10-07T13:06:19.103Z,0.50
2022-10-07T13:09:03.868Z,0.50
2022-10-07T13:11:59.854Z,0.70
2022-10-07T13:14:30.451Z,0.50
2022-10-07T13:17:18.936Z,0.65
2022-10-07T13:20:12.588Z,0.60
2022-10-07T13:22:46.429Z,0.60
2022-10-07T13:25:15.422Z,0.60
2022-10-07T13:27:50.836Z,0.60
2022-10-07T13:30:42.113Z,0.50
2022-10-07T13:33:22.043Z,0.70
2022-10-07T13:35:50.092Z,0.60
2022-10-07T13:38:27.679Z,0.70
2022-10-07T13:40:59.257Z,0.70
2022-10-07T13:43:29.941Z,0.70
2022-10-07T13:45:57.672Z,0.52
2022-10-07T13:48:28.151Z,0.60
2022-10-07T13:50:58.665Z,0.50
2022-10-07T13:53:31.866Z,0.70
2022-10-07T13:56:20.639Z,0.60
2022-10-07T13:58:47.698Z,0.50
2022-10-07T14:01:14.899Z,0.60
2022-10-07T14:04:16.090Z,0.40
2022-10-07T14:06:54.803Z,0.50
2022-10-07T14:09:26.271Z,0.50
2022-10-07T14:11:57.658Z,0.70
2022-10-07T14:14:27.937Z,0.60
2022-10-07T14:16:59.401Z,0.60
2022-10-07T14:19:32.125Z,0.60
2022-10-07T14:22:04.624Z,0.70
2022-10-07T14:24:31.783Z,0.60
2022-10-07T14:26:58.532Z,0.57
2022-10-07T14:29:28.234Z,0.50
2022-10-07T14:32:31.790Z,0.40
2022-10-07T14:35:22.075Z,0.30
2022-10-07T14:37:49.385Z,0.40
2022-10-07T14:40:18.902Z,0.50
2022-10-07T14:42:45.786Z,0.30
2022-10-07T14:45:17.951Z,0.50
2022-10-07T14:47:45.582Z,0.40
2022-10-07T14:50:13.473Z,0.30
2022-10-07T14:52:46.917Z,0.50
2022-10-07T14:55:20.591Z,0.40
2022-10-07T14:57:48.146Z,0.40
2022-10-07T15:00:19.254Z,0.60
2022-10-07T15:02:47.594Z,0.30
2022-10-07T15:05:14.598Z,0.30
2022-10-07T15:07:42.452Z,0.40
2022-10-07T15:10:19.363Z,0.32
2022-10-07T15:12:46.169Z,0.40
2022-10-07T15:15:14.142Z,0.35
2022-10-07T15:17:41.766Z,0.40
2022-10-07T15:20:11.535Z,0.40
2022-10-07T15:22:38.289Z,0.30
2022-10-07T15:25:06.716Z,0.30
2022-10-07T15:27:33.460Z,0.35
2022-10-07T15:30:00.233Z,0.30
2022-10-07T15:32:30.290Z,0.30
2022-10-07T15:34:58.128Z,0.30
2022-10-07T15:37:27.714Z,0.20
2022-10-07T15:39:54.938Z,0.30
2022-10-07T15:42:24.280Z,0.30
2022-10-07T15:44:51.691Z,0.20
2022-10-07T15:47:18.872Z,0.20
2022-10-07T15:49:45.557Z,0.30
2022-10-07T15:52:12.748Z,0.25
2022-10-07T15:54:40.009Z,0.40
2022-10-07T15:57:08.299Z,0.20
2022-10-07T15:59:35.902Z,0.30
2022-10-07T16:02:03.843Z,0.30
2022-10-07T16:04:30.470Z,0.30
2022-10-07T16:06:57.280Z,0.30
2022-10-07T16:09:24.537Z,0.30
2022-10-07T16:11:51.141Z,0.20
2022-10-07T16:14:17.931Z,0.20
2022-10-07T16:16:44.754Z,0.20
2022-10-07T16:19:14.210Z,0.30
2022-10-07T16:21:42.771Z,0.30
2022-10-07T16:24:22.901Z,0.20
2022-10-07T16:26:50.718Z,0.22
2022-10-07T16:29:40.976Z,0.20
2022-10-07T16:32:10.666Z,0.30
2022-10-07T16:34:39.085Z,0.30
2022-10-07T16:37:06.235Z,0.20
2022-10-07T16:39:32.865Z,0.30
2022-10-07T16:41:59.965Z,0.20
2022-10-07T16:44:27.775Z,0.25
2022-10-07T16:46:57.414Z,0.20
2022-10-07T16:49:29.327Z,0.20
2022-10-07T16:51:57.080Z,0.20
2022-10-07T16:54:24.111Z,0.20
2022-10-07T16:56:52.535Z,0.30
2022-10-07T16:59:24.522Z,0.20
2022-10-07T17:01:55.391Z,0.30
2022-10-07T17:04:22.767Z,0.30
2022-10-07T17:06:49.506Z,0.28
2022-10-07T17:09:17.830Z,0.22
2022-10-07T17:11:44.887Z,0.20
2022-10-07T17:14:17.612Z,0.20
2022-10-07T17:16:47.238Z,0.20
2022-10-07T17:19:17.743Z,0.17
2022-10-07T17:21:46.307Z,0.30
2022-10-07T17:24:13.277Z,0.20
2022-10-07T17:26:40.572Z,0.20
2022-10-07T17:29:11.930Z,0.20
2022-10-07T17:31:41.737Z,0.20
2022-10-07T17:34:09.142Z,0.20
2022-10-07T17:36:35.741Z,0.20
2022-10-07T17:39:02.640Z,0.20
2022-10-07T17:41:34.514Z,0.20
2022-10-07T17:44:03.412Z,0.30
2022-10-07T17:46:32.710Z,0.20
2022-10-07T17:49:00.899Z,0.30
2022-10-07T17:51:29.963Z,0.20
2022-10-07T17:54:01.078Z,0.30
2022-10-07T17:56:29.621Z,0.20
2022-10-07T17:58:56.836Z,0.17
2022-10-07T18:01:26.420Z,0.30
2022-10-07T18:04:01.780Z,0.20
2022-10-07T18:06:31.270Z,0.20
2022-10-07T18:09:03.299Z,0.30
2022-10-07T18:11:48.968Z,0.30
2022-10-07T18:14:34.063Z,0.20
2022-10-07T18:17:01.383Z,0.20
2022-10-07T18:19:29.523Z,0.25
2022-10-07T18:21:56.635Z,0.20
2022-10-07T18:24:24.251Z,0.30
2022-10-07T18:26:50.812Z,0.15
2022-10-07T18:29:18.483Z,0.20
2022-10-07T18:31:45.145Z,0.20
2022-10-07T18:34:11.847Z,0.30
2022-10-07T18:36:38.620Z,0.20
2022-10-07T18:39:10.411Z,0.20
2022-10-07T18:41:37.224Z,0.20
2022-10-07T18:44:03.911Z,0.30
2022-10-07T18:46:30.706Z,0.20
2022-10-07T18:48:57.299Z,0.30
2022-10-07T18:51:23.974Z,0.30
2022-10-07T18:53:51.840Z,0.20
2022-10-07T18:56:21.528Z,0.30
2022-10-07T18:58:50.497Z,0.22
2022-10-07T19:01:23.084Z,0.20
2022-10-07T19:03:55.351Z,0.20
2022-10-07T19:06:23.799Z,0.20
2022-10-07T19:08:54.285Z,0.20
2022-10-07T19:11:21.200Z,0.20
2022-10-07T19:13:54.027Z,0.20
2022-10-07T19:16:29.482Z,0.20
2022-10-07T19:18:59.197Z,0.30
2022-10-07T19:21:26.080Z,0.20
2022-10-07T19:23:54.888Z,0.20
2022-10-07T19:26:24.051Z,0.22
2022-10-07T19:28:52.633Z,0.20
2022-10-07T19:31:29.728Z,0.22
2022-10-07T19:34:03.394Z,0.20
2022-10-07T19:36:32.235Z,0.20
2022-10-07T19:38:59.543Z,0.28
2022-10-07T19:41:28.652Z,0.13
2022-10-07T19:43:56.002Z,0.22
2022-10-07T19:46:25.276Z,0.30
2022-10-07T19:48:56.148Z,0.20
2022-10-07T19:51:23.568Z,0.20
2022-10-07T19:53:50.167Z,0.30
2022-10-07T19:56:28.615Z,0.30
2022-10-07T19:58:57.262Z,0.20
2022-10-07T20:01:26.418Z,0.20
2022-10-07T20:04:07.431Z,0.20
2022-10-07T20:06:36.845Z,0.20
2022-10-07T20:09:08.276Z,0.20
2022-10-07T20:11:34.868Z,0.20
2022-10-07T20:14:02.936Z,0.28
2022-10-07T20:16:31.082Z,0.30
2022-10-07T20:19:01.157Z,0.30
2022-10-07T20:21:28.894Z,0.20
2022-10-07T20:23:56.689Z,0.25
2022-10-07T20:26:25.610Z,0.30
2022-10-07T20:28:54.649Z,0.20
2022-10-07T20:31:23.880Z,0.20
2022-10-07T20:33:52.793Z,0.22
2022-10-07T20:36:34.785Z,0.20
2022-10-07T20:39:25.746Z,0.30
2022-10-07T20:42:12.342Z,0.20
2022-10-07T20:44:39.421Z,0.20
2022-10-07T20:47:07.808Z,0.20
2022-10-07T20:49:35.262Z,0.30
2022-10-07T20:52:04.330Z,0.20
2022-10-07T20:54:33.180Z,0.30
2022-10-07T20:57:00.502Z,0.17
2022-10-07T20:59:28.866Z,0.20
2022-10-07T21:01:56.228Z,0.20
2022-10-07T21:04:27.000Z,0.30
2022-10-07T21:06:54.464Z,0.20
2022-10-07T21:09:21.033Z,0.20
2022-10-07T21:11:48.358Z,0.20
2022-10-07T21:14:17.083Z,0.20
2022-10-07T21:16:44.198Z,0.20
2022-10-07T21:19:10.848Z,0.20
2022-10-07T21:21:37.568Z,0.20
2022-10-07T21:24:04.533Z,0.22
2022-10-07T21:26:31.127Z,0.20
2022-10-07T21:28:57.731Z,0.28
2022-10-07T21:31:25.458Z,0.20
2022-10-07T21:33:52.998Z,0.60
2022-10-07T21:36:22.215Z,0.30
2022-10-07T21:38:58.341Z,0.30
2022-10-07T21:41:39.790Z,0.20
2022-10-07T21:44:10.489Z,0.20
2022-10-07T21:46:37.963Z,0.20
2022-10-07T21:49:06.288Z,0.30
2022-10-07T21:51:34.648Z,0.30
2022-10-07T21:54:02.343Z,0.30
2022-10-07T21:56:30.968Z,0.30
2022-10-07T21:59:00.593Z,0.25
2022-10-07T22:01:28.422Z,0.20
2022-10-07T22:04:02.477Z,0.30
2022-10-07T22:06:49.901Z,0.20
2022-10-07T22:09:18.586Z,0.30
2022-10-07T22:11:45.359Z,0.20
2022-10-07T22:14:13.029Z,0.20
2022-10-07T22:16:40.442Z,0.30
2022-10-07T22:19:07.307Z,0.20
2022-10-07T22:21:39.188Z,0.30
2022-10-07T22:24:07.572Z,0.30
2022-10-07T22:26:40.534Z,0.40
2022-10-07T22:29:09.584Z,0.30
2022-10-07T22:31:37.065Z,0.30
2022-10-07T22:34:03.825Z,0.20
2022-10-07T22:36:30.586Z,0.30
2022-10-07T22:38:59.119Z,0.30
2022-10-07T22:41:26.618Z,0.20
2022-10-07T22:43:53.771Z,0.20
2022-10-07T22:46:26.488Z,0.30
2022-10-07T22:48:56.294Z,0.20
2022-10-07T22:51:22.948Z,0.30
2022-10-07T22:53:54.430Z,0.30
2022-10-07T22:56:22.295Z,0.47
2022-10-07T22:58:53.107Z,0.30
2022-10-07T23:01:21.215Z,0.30
2022-10-07T23:03:48.220Z,0.38
2022-10-07T23:06:18.246Z,0.25
2022-10-07T23:08:45.934Z,0.30
2022-10-07T23:11:24.115Z,0.40
2022-10-07T23:13:51.680Z,0.30
2022-10-07T23:16:20.640Z,0.30
2022-10-07T23:18:49.475Z,0.30
2022-10-07T23:21:21.466Z,0.40
2022-10-07T23:23:50.565Z,0.30
2022-10-07T23:26:22.936Z,0.30
2022-10-07T23:28:51.402Z,0.30
2022-10-07T23:31:19.884Z,0.20
2022-10-07T23:33:48.563Z,0.30
2022-10-07T23:36:16.528Z,0.30
2022-10-07T23:38:46.455Z,0.30
2022-10-07T23:41:15.382Z,0.40
2022-10-07T23:43:42.477Z,0.40
2022-10-07T23:46:13.333Z,0.30
2022-10-07T23:48:41.292Z,0.30
2022-10-07T23:51:10.029Z,0.30
2022-10-07T23:53:36.878Z,0.32
2022-10-07T23:56:03.693Z,0.25
2022-10-07T23:58:32.112Z,0.30
